createdAt,value
2023-08-04T00:02:46.363Z,99005.47
2023-08-04T00:07:49.235Z,99007.02
2023-08-04T00:12:52.536Z,99010.86
2023-08-04T00:17:55.964Z,99022.36
2023-08-04T00:22:58.974Z,99031.22
2023-08-04T00:28:02.090Z,99034.45
2023-08-04T00:33:04.954Z,99041.83
2023-08-04T00:38:07.770Z,99049.28
2023-08-04T00:43:10.694Z,99053.73
2023-08-04T00:48:14.309Z,99060.83
2023-08-04T00:53:17.827Z,99065.45
2023-08-04T00:58:20.929Z,99078.14
2023-08-04T01:03:25.986Z,99080.40
2023-08-04T01:08:34.300Z,99081.65
2023-08-04T01:13:41.176Z,99089.38
2023-08-04T01:18:44.162Z,99097.14
2023-08-04T01:23:46.960Z,99106.94
2023-08-04T01:28:50.440Z,99113.25
2023-08-04T01:33:53.426Z,99121.80
2023-08-04T01:38:57.622Z,99125.33
2023-08-04T01:44:00.520Z,99112.63
2023-08-04T01:49:03.389Z,99115.73
2023-08-04T01:54:06.215Z,99120.78
2023-08-04T01:59:08.982Z,99116.98
2023-08-04T02:04:11.810Z,99131.83
2023-08-04T02:09:15.099Z,99137.07
2023-08-04T02:14:17.880Z,99141.84
2023-08-04T02:19:22.331Z,99149.30
2023-08-04T02:24:25.095Z,99155.25
2023-08-04T02:29:27.921Z,99157.16
2023-08-04T02:34:30.686Z,99155.33
2023-08-04T02:39:35.946Z,99161.82
2023-08-04T02:44:38.732Z,99159.68
2023-08-04T02:49:41.653Z,99149.63
2023-08-04T02:54:44.433Z,99157.42
2023-08-04T02:59:47.273Z,99166.89
2023-08-04T03:04:50.056Z,99180.52
2023-08-04T03:09:52.833Z,99181.20
2023-08-04T03:14:55.635Z,99171.98
2023-08-04T03:19:58.457Z,99179.80
2023-08-04T03:25:02.197Z,99181.09
2023-08-04T03:30:05.307Z,99180.86
2023-08-04T03:35:08.292Z,99183.65
2023-08-04T03:40:11.834Z,99188.40
2023-08-04T03:45:14.655Z,99192.50
2023-08-04T03:50:17.439Z,99194.26
2023-08-04T03:55:20.563Z,99191.09
2023-08-04T04:00:23.407Z,99193.41
2023-08-04T04:05:26.283Z,99202.41
2023-08-04T04:10:29.165Z,99217.05
2023-08-04T04:15:32.064Z,99228.80
2023-08-04T04:20:34.859Z,99244.80
2023-08-04T04:25:37.738Z,99250.44
2023-08-04T04:30:40.504Z,99251.02
2023-08-04T04:35:50.955Z,99236.16
2023-08-04T04:41:01.735Z,99249.05
2023-08-04T04:46:04.875Z,99252.14
2023-08-04T04:51:07.711Z,99270.65
2023-08-04T04:56:11.318Z,99277.48
2023-08-04T05:01:14.021Z,99271.39
2023-08-04T05:06:17.471Z,99260.58
2023-08-04T05:11:20.280Z,99259.86
2023-08-04T05:16:23.238Z,99255.51
2023-08-04T05:21:26.042Z,99264.46
2023-08-04T05:26:28.818Z,99278.18
2023-08-04T05:31:33.077Z,99278.20
2023-08-04T05:36:35.926Z,99274.28
2023-08-04T05:41:38.742Z,99282.50
2023-08-04T05:46:41.813Z,99288.26
2023-08-04T05:51:46.525Z,99289.91
2023-08-04T05:56:49.455Z,99286.16
2023-08-04T06:01:55.548Z,99289.93
2023-08-04T06:06:58.601Z,99292.30
2023-08-04T06:12:01.426Z,99295.30
2023-08-04T06:17:04.630Z,99304.24
2023-08-04T06:22:09.049Z,99309.38
2023-08-04T06:27:12.626Z,99309.92
2023-08-04T06:32:15.633Z,99318.11
2023-08-04T06:37:18.423Z,99327.31
2023-08-04T06:42:21.440Z,99336.57
2023-08-04T06:47:24.698Z,99340.07
2023-08-04T06:52:28.429Z,99336.57
2023-08-04T06:57:31.531Z,99341.16
2023-08-04T07:02:35.129Z,99341.63
2023-08-04T07:07:39.323Z,99336.03
2023-08-04T07:12:44.911Z,99337.05
2023-08-04T07:17:48.467Z,99343.52
2023-08-04T07:22:51.509Z,99346.86
2023-08-04T07:27:54.797Z,99349.48
2023-08-04T07:32:57.736Z,99350.26
2023-08-04T07:38:00.825Z,99347.91
2023-08-04T07:43:03.754Z,99350.07
2023-08-04T07:48:07.116Z,99347.75
2023-08-04T07:53:10.110Z,99353.13
2023-08-04T07:58:12.818Z,99358.00
2023-08-04T08:03:15.793Z,99363.90
2023-08-04T08:08:19.906Z,99370.55
2023-08-04T08:13:22.947Z,99377.62
2023-08-04T08:18:26.123Z,99382.31
2023-08-04T08:23:29.173Z,99383.02
2023-08-04T08:28:32.968Z,99388.56
2023-08-04T08:33:35.841Z,99397.92
2023-08-04T08:38:40.307Z,99408.79
2023-08-04T08:43:45.283Z,99412.13
2023-08-04T08:48:51.073Z,99420.52
2023-08-04T08:53:54.514Z,99432.96
2023-08-04T08:58:57.471Z,99435.09
2023-08-04T09:04:01.969Z,99438.39
2023-08-04T09:09:07.386Z,99445.66
2023-08-04T09:14:10.349Z,99454.48
2023-08-04T09:19:13.148Z,99462.23
2023-08-04T09:24:17.194Z,99465.77
2023-08-04T09:29:20.510Z,99472.67
2023-08-04T09:34:23.431Z,99476.63
2023-08-04T09:39:31.343Z,99482.74
2023-08-04T09:44:56.275Z,99485.08
2023-08-04T09:50:11.915Z,99488.63
2023-08-04T09:55:19.482Z,99490.62
2023-08-04T10:00:25.311Z,99495.69
2023-08-04T10:05:31.153Z,99494.95
2023-08-04T10:10:34.292Z,99501.61
2023-08-04T10:15:37.606Z,99506.89
2023-08-04T10:20:54.676Z,99500.85
2023-08-04T10:26:04.377Z,99506.43
2023-08-04T10:31:13.377Z,99515.96
2023-08-04T10:36:18.636Z,99515.41
2023-08-04T10:41:21.522Z,99518.67
2023-08-04T10:46:26.356Z,99519.27
2023-08-04T10:51:31.266Z,99529.59
2023-08-04T10:56:37.462Z,99537.40
2023-08-04T11:01:40.730Z,99543.13
2023-08-04T11:06:45.638Z,99550.66
2023-08-04T11:11:49.409Z,99550.62
2023-08-04T11:16:52.968Z,99546.81
2023-08-04T11:21:56.215Z,99548.91
2023-08-04T11:26:59.264Z,99554.13
2023-08-04T11:32:10.080Z,99557.61
2023-08-04T11:37:12.949Z,99564.38
2023-08-04T11:42:18.117Z,99568.21
2023-08-04T11:47:21.868Z,99566.48
2023-08-04T11:52:25.358Z,99563.11
2023-08-04T11:57:28.282Z,99576.14
2023-08-04T12:02:31.436Z,99576.18
2023-08-04T12:07:38.387Z,99582.11
2023-08-04T12:12:43.284Z,99582.56
2023-08-04T12:17:46.852Z,99591.17
2023-08-04T12:22:51.102Z,99588.96
2023-08-04T12:28:00.428Z,99594.14
2023-08-04T12:33:09.128Z,99600.23
2023-08-04T12:38:14.063Z,99605.81
2023-08-04T12:43:19.145Z,99599.63
2023-08-04T12:48:22.525Z,99600.70
2023-08-04T12:53:25.646Z,99600.04
2023-08-04T12:58:32.362Z,99608.64
2023-08-04T13:03:35.906Z,99611.90
2023-08-04T13:08:38.852Z,99627.67
2023-08-04T13:13:41.847Z,99636.80
2023-08-04T13:18:44.809Z,99651.03
2023-08-04T13:23:48.758Z,99651.67
2023-08-04T13:28:52.645Z,99658.05
2023-08-04T13:33:55.722Z,99654.17
2023-08-04T13:38:58.600Z,99646.50
2023-08-04T13:44:01.779Z,99641.64
2023-08-04T13:49:05.155Z,99633.15
2023-08-04T13:54:08.195Z,99643.48
2023-08-04T13:59:13.523Z,99641.70
2023-08-04T14:04:19.266Z,99642.78
2023-08-04T14:09:22.738Z,99647.66
2023-08-04T14:14:25.701Z,99656.38
2023-08-04T14:19:28.675Z,99660.52
2023-08-04T14:24:31.621Z,99660.44
2023-08-04T14:29:34.666Z,99671.98
2023-08-04T14:34:37.947Z,99675.56
2023-08-04T14:39:40.824Z,99683.02
2023-08-04T14:44:44.941Z,99688.97
2023-08-04T14:49:47.860Z,99701.27
2023-08-04T14:54:50.741Z,99700.96
2023-08-04T14:59:53.721Z,99706.02
2023-08-04T15:04:56.710Z,99719.09
2023-08-04T15:09:59.658Z,99722.91
2023-08-04T15:15:03.384Z,99728.90
2023-08-04T15:20:09.276Z,99727.69
2023-08-04T15:25:12.674Z,99726.60
2023-08-04T15:30:15.576Z,99727.52
2023-08-04T15:35:18.478Z,99717.94
2023-08-04T15:40:21.713Z,99719.09
2023-08-04T15:45:26.079Z,99716.78
2023-08-04T15:50:29.615Z,99717.70
2023-08-04T15:55:32.845Z,99719.85
2023-08-04T16:00:40.154Z,99726.81
2023-08-04T16:05:47.063Z,99744.10
2023-08-04T16:10:57.673Z,99754.56
2023-08-04T16:16:08.128Z,99755.45
2023-08-04T16:21:11.359Z,99749.76
2023-08-04T16:26:14.900Z,99752.33
2023-08-04T16:31:18.046Z,99754.37
2023-08-04T16:36:24.482Z,99747.40
2023-08-04T16:41:27.331Z,99750.13
2023-08-04T16:46:30.232Z,99757.30
2023-08-04T16:51:33.119Z,99759.28
2023-08-04T16:56:35.930Z,99760.75
2023-08-04T17:01:38.877Z,99761.51
2023-08-04T17:06:43.135Z,99764.73
2023-08-04T17:11:47.266Z,99773.98
2023-08-04T17:16:50.950Z,99786.21
2023-08-04T17:21:54.574Z,99785.70
2023-08-04T17:26:57.469Z,99782.13
2023-08-04T17:32:00.947Z,99790.36
2023-08-04T17:37:04.653Z,99808.73
2023-08-04T17:42:08.724Z,99820.13
2023-08-04T17:47:14.025Z,99824.05
2023-08-04T17:52:18.527Z,99840.02
2023-08-04T17:57:24.018Z,99839.27
2023-08-04T18:02:27.936Z,99837.67
2023-08-04T18:07:40.978Z,99844.34
2023-08-04T18:12:51.187Z,99844.67
2023-08-04T18:17:56.423Z,99851.08
2023-08-04T18:23:00.796Z,99855.05
2023-08-04T18:28:11.645Z,99859.12
2023-08-04T18:33:16.891Z,99875.61
2023-08-04T18:38:22.893Z,99872.12
2023-08-04T18:43:26.632Z,99873.77
2023-08-04T18:48:29.518Z,99881.47
2023-08-04T18:53:32.351Z,99885.23
2023-08-04T18:58:35.291Z,99893.88
2023-08-04T19:03:38.229Z,99899.29
2023-08-04T19:08:41.136Z,99912.98
2023-08-04T19:13:43.962Z,99921.77
2023-08-04T19:18:46.791Z,99916.23
2023-08-04T19:23:50.586Z,99915.23
2023-08-04T19:28:53.368Z,99912.44
2023-08-04T19:33:56.167Z,99915.73
2023-08-04T19:39:03.223Z,99920.20
2023-08-04T19:44:06.363Z,99933.80
2023-08-04T19:49:10.240Z,99929.27
2023-08-04T19:54:15.456Z,99927.39
2023-08-04T19:59:21.113Z,99934.79
2023-08-04T20:04:24.139Z,99952.58
2023-08-04T20:09:28.452Z,99965.41
2023-08-04T20:14:33.841Z,99970.27
2023-08-04T20:19:37.262Z,99979.31
2023-08-04T20:24:40.152Z,99986.11
2023-08-04T20:29:47.567Z,99995.31
2023-08-04T20:34:50.472Z,99996.53
2023-08-04T20:39:54.036Z,99986.71
2023-08-04T20:44:56.936Z,99968.67
2023-08-04T20:49:59.708Z,99972.63
2023-08-04T20:55:02.720Z,99983.20
2023-08-04T21:00:06.780Z,99986.84
2023-08-04T21:05:09.791Z,99990.05
2023-08-04T21:10:12.615Z,99991.33
2023-08-04T21:15:15.942Z,100001.88
2023-08-04T21:20:19.451Z,100009.79
2023-08-04T21:25:22.370Z,100009.90
2023-08-04T21:30:26.283Z,100013.67
2023-08-04T21:35:29.154Z,100001.86
2023-08-04T21:40:32.005Z,100007.27
2023-08-04T21:45:35.246Z,100013.91
2023-08-04T21:50:38.611Z,100019.71
2023-08-04T21:55:43.764Z,100008.64
2023-08-04T22:00:49.530Z,100003.73
2023-08-04T22:05:55.505Z,100002.27
2023-08-04T22:11:09.728Z,100004.84
2023-08-04T22:16:13.517Z,100005.73
2023-08-04T22:21:16.655Z,100006.80
2023-08-04T22:26:19.575Z,100013.17
2023-08-04T22:31:24.954Z,100015.41
2023-08-04T22:36:27.811Z,100022.09
2023-08-04T22:41:30.643Z,100025.67
2023-08-04T22:46:33.530Z,100023.83
2023-08-04T22:51:36.373Z,100021.71
2023-08-04T22:56:39.246Z,100032.70
2023-08-04T23:01:42.088Z,100031.63
2023-08-04T23:06:44.862Z,100030.33
2023-08-04T23:11:47.721Z,100038.63
2023-08-04T23:16:50.773Z,100033.10
2023-08-04T23:21:53.904Z,100041.96
2023-08-04T23:26:56.687Z,100033.16
2023-08-04T23:31:59.478Z,100029.47
2023-08-04T23:37:02.287Z,100036.30
2023-08-04T23:42:05.198Z,100040.42
2023-08-04T23:47:08.012Z,100043.22
2023-08-04T23:52:10.838Z,100043.39
2023-08-04T23:57:13.596Z,100042.00
